sensor_id;sensor_type;location;lat;lon;timestamp;temperature;humidity
25438;DHT22;13364;49.084;9.978;2024-03-23T00:53:28;10.40;75.90
25438;DHT22;13364;49.084;9.978;2024-03-23T00:55:54;10.40;75.90
25438;DHT22;13364;49.084;9.978;2024-03-23T00:58:20;10.30;76.10
25438;DHT22;13364;49.084;9.978;2024-03-23T01:00:46;10.30;76.10
25438;DHT22;13364;49.084;9.978;2024-03-23T01:03:12;10.30;76.30
25438;DHT22;13364;49.084;9.978;2024-03-23T01:05:38;10.20;76.50
25438;DHT22;13364;49.084;9.978;2024-03-23T01:08:04;10.20;76.70
25438;DHT22;13364;49.084;9.978;2024-03-23T01:10:30;10.20;77.00
25438;DHT22;13364;49.084;9.978;2024-03-23T01:12:56;10.30;76.90
25438;DHT22;13364;49.084;9.978;2024-03-23T01:15:22;10.40;76.80
25438;DHT22;13364;49.084;9.978;2024-03-23T01:17:48;10.40;76.60
25438;DHT22;13364;49.084;9.978;2024-03-23T01:20:14;10.40;76.50
25438;DHT22;13364;49.084;9.978;2024-03-23T01:22:40;10.50;76.40
25438;DHT22;13364;49.084;9.978;2024-03-23T01:25:06;10.50;76.20
25438;DHT22;13364;49.084;9.978;2024-03-23T01:27:32;10.50;76.20
25438;DHT22;13364;49.084;9.978;2024-03-23T01:29:58;10.50;76.10
25438;DHT22;13364;49.084;9.978;2024-03-23T01:32:24;10.50;76.00
25438;DHT22;13364;49.084;9.978;2024-03-23T01:34:50;10.50;76.00
25438;DHT22;13364;49.084;9.978;2024-03-23T01:37:15;10.50;76.00
25438;DHT22;13364;49.084;9.978;2024-03-23T01:39:41;10.50;76.00
25438;DHT22;13364;49.084;9.978;2024-03-23T01:42:07;10.50;75.80
25438;DHT22;13364;49.084;9.978;2024-03-23T01:44:33;10.60;75.50
25438;DHT22;13364;49.084;9.978;2024-03-23T01:46:59;10.60;75.50
25438;DHT22;13364;49.084;9.978;2024-03-23T01:49:25;10.60;75.30
25438;DHT22;13364;49.084;9.978;2024-03-23T01:51:51;10.70;75.30
25438;DHT22;13364;49.084;9.978;2024-03-23T01:54:17;10.70;75.10
25438;DHT22;13364;49.084;9.978;2024-03-23T01:56:44;10.80;74.90
25438;DHT22;13364;49.084;9.978;2024-03-23T01:59:10;10.80;74.90
25438;DHT22;13364;49.084;9.978;2024-03-23T02:01:36;10.80;74.80
25438;DHT22;13364;49.084;9.978;2024-03-23T02:04:02;10.90;74.80
25438;DHT22;13364;49.084;9.978;2024-03-23T02:06:28;10.90;74.80
25438;DHT22;13364;49.084;9.978;2024-03-23T02:08:55;11.00;74.80
25438;DHT22;13364;49.084;9.978;2024-03-23T02:11:21;11.00;74.60
25438;DHT22;13364;49.084;9.978;2024-03-23T02:13:46;11.00;74.30
25438;DHT22;13364;49.084;9.978;2024-03-23T02:16:12;11.00;74.50
25438;DHT22;13364;49.084;9.978;2024-03-23T02:18:41;11.00;74.40
25438;DHT22;13364;49.084;9.978;2024-03-23T02:21:07;11.00;74.40
25438;DHT22;13364;49.084;9.978;2024-03-23T02:23:33;11.00;74.10
25438;DHT22;13364;49.084;9.978;2024-03-23T02:25:59;11.10;74.30
25438;DHT22;13364;49.084;9.978;2024-03-23T02:28:25;11.00;74.00
25438;DHT22;13364;49.084;9.978;2024-03-23T02:30:50;11.00;74.30
25438;DHT22;13364;49.084;9.978;2024-03-23T02:33:16;11.00;74.30
25438;DHT22;13364;49.084;9.978;2024-03-23T02:35:46;11.00;74.40
25438;DHT22;13364;49.084;9.978;2024-03-23T02:38:12;11.00;74.40
25438;DHT22;13364;49.084;9.978;2024-03-23T02:40:38;11.10;74.20
25438;DHT22;13364;49.084;9.978;2024-03-23T02:43:04;11.10;74.00
25438;DHT22;13364;49.084;9.978;2024-03-23T02:45:30;11.10;73.90
25438;DHT22;13364;49.084;9.978;2024-03-23T02:47:56;11.20;73.80
25438;DHT22;13364;49.084;9.978;2024-03-23T02:50:23;11.10;73.60
25438;DHT22;13364;49.084;9.978;2024-03-23T02:52:48;11.10;73.70
25438;DHT22;13364;49.084;9.978;2024-03-23T02:55:14;10.90;74.00
25438;DHT22;13364;49.084;9.978;2024-03-23T02:57:42;10.90;74.00
25438;DHT22;13364;49.084;9.978;2024-03-23T03:00:08;10.90;74.20
25438;DHT22;13364;49.084;9.978;2024-03-23T03:02:34;10.90;74.40
25438;DHT22;13364;49.084;9.978;2024-03-23T03:05:00;10.80;74.50
25438;DHT22;13364;49.084;9.978;2024-03-23T03:07:26;10.80;74.70
25438;DHT22;13364;49.084;9.978;2024-03-23T03:09:52;10.80;74.80
25438;DHT22;13364;49.084;9.978;2024-03-23T03:12:18;10.80;74.90
25438;DHT22;13364;49.084;9.978;2024-03-23T03:14:44;10.70;75.30
25438;DHT22;13364;49.084;9.978;2024-03-23T03:17:10;10.70;75.40
25438;DHT22;13364;49.084;9.978;2024-03-23T03:19:35;10.70;75.40
25438;DHT22;13364;49.084;9.978;2024-03-23T03:22:01;10.70;75.50
25438;DHT22;13364;49.084;9.978;2024-03-23T03:24:27;10.60;75.90
25438;DHT22;13364;49.084;9.978;2024-03-23T03:26:53;10.60;76.30
25438;DHT22;13364;49.084;9.978;2024-03-23T03:29:19;10.50;76.40
25438;DHT22;13364;49.084;9.978;2024-03-23T03:31:45;10.50;76.80
25438;DHT22;13364;49.084;9.978;2024-03-23T03:34:11;10.50;76.90
25438;DHT22;13364;49.084;9.978;2024-03-23T03:36:37;10.50;77.10
25438;DHT22;13364;49.084;9.978;2024-03-23T03:39:03;10.40;77.40
25438;DHT22;13364;49.084;9.978;2024-03-23T03:41:30;10.40;77.70
25438;DHT22;13364;49.084;9.978;2024-03-23T03:43:56;10.50;77.90
25438;DHT22;13364;49.084;9.978;2024-03-23T03:46:27;10.50;78.00
25438;DHT22;13364;49.084;9.978;2024-03-23T03:48:54;10.50;77.90
25438;DHT22;13364;49.084;9.978;2024-03-23T03:51:20;10.50;78.20
25438;DHT22;13364;49.084;9.978;2024-03-23T03:53:46;10.50;78.70
25438;DHT22;13364;49.084;9.978;2024-03-23T03:56:12;10.40;78.50
25438;DHT22;13364;49.084;9.978;2024-03-23T03:58:38;10.40;78.60
25438;DHT22;13364;49.084;9.978;2024-03-23T04:01:05;10.40;78.70
25438;DHT22;13364;49.084;9.978;2024-03-23T04:03:31;10.40;78.80
25438;DHT22;13364;49.084;9.978;2024-03-23T04:05:57;10.40;78.80
25438;DHT22;13364;49.084;9.978;2024-03-23T04:08:24;10.40;78.80
25438;DHT22;13364;49.084;9.978;2024-03-23T04:10:49;10.40;78.90
25438;DHT22;13364;49.084;9.978;2024-03-23T04:13:16;10.40;78.80
25438;DHT22;13364;49.084;9.978;2024-03-23T04:15:42;10.30;78.90
25438;DHT22;13364;49.084;9.978;2024-03-23T04:18:08;10.30;79.00
25438;DHT22;13364;49.084;9.978;2024-03-23T04:20:34;10.30;79.00
25438;DHT22;13364;49.084;9.978;2024-03-23T04:23:00;10.20;79.20
25438;DHT22;13364;49.084;9.978;2024-03-23T04:25:26;10.20;79.40
25438;DHT22;13364;49.084;9.978;2024-03-23T04:27:52;10.20;79.50
25438;DHT22;13364;49.084;9.978;2024-03-23T04:30:18;10.20;79.50
25438;DHT22;13364;49.084;9.978;2024-03-23T04:32:45;10.10;79.60
25438;DHT22;13364;49.084;9.978;2024-03-23T04:35:11;10.10;79.80
25438;DHT22;13364;49.084;9.978;2024-03-23T04:37:37;10.10;79.90
25438;DHT22;13364;49.084;9.978;2024-03-23T04:40:06;10.20;80.20
25438;DHT22;13364;49.084;9.978;2024-03-23T04:42:33;10.20;80.30
25438;DHT22;13364;49.084;9.978;2024-03-23T04:44:59;10.10;80.40
25438;DHT22;13364;49.084;9.978;2024-03-23T04:47:25;10.10;80.40
25438;DHT22;13364;49.084;9.978;2024-03-23T04:49:52;10.10;80.50
25438;DHT22;13364;49.084;9.978;2024-03-23T04:52:18;10.10;80.70
25438;DHT22;13364;49.084;9.978;2024-03-23T04:54:44;10.10;81.10
25438;DHT22;13364;49.084;9.978;2024-03-23T04:57:11;10.00;81.20
25438;DHT22;13364;49.084;9.978;2024-03-23T04:59:37;9.90;81.80
25438;DHT22;13364;49.084;9.978;2024-03-23T05:02:03;9.80;82.40
25438;DHT22;13364;49.084;9.978;2024-03-23T05:04:28;9.80;83.20
25438;DHT22;13364;49.084;9.978;2024-03-23T05:06:54;9.80;83.80
25438;DHT22;13364;49.084;9.978;2024-03-23T05:09:20;9.70;84.60
25438;DHT22;13364;49.084;9.978;2024-03-23T05:11:47;9.70;85.40
25438;DHT22;13364;49.084;9.978;2024-03-23T05:14:16;9.80;86.50
25438;DHT22;13364;49.084;9.978;2024-03-23T05:16:41;9.80;89.40
25438;DHT22;13364;49.084;9.978;2024-03-23T05:19:07;9.70;92.00
25438;DHT22;13364;49.084;9.978;2024-03-23T05:21:33;9.70;93.50
25438;DHT22;13364;49.084;9.978;2024-03-23T05:23:59;9.60;94.50
25438;DHT22;13364;49.084;9.978;2024-03-23T05:26:25;9.50;95.80
25438;DHT22;13364;49.084;9.978;2024-03-23T05:28:51;9.50;96.40
25438;DHT22;13364;49.084;9.978;2024-03-23T05:31:27;9.50;97.10
25438;DHT22;13364;49.084;9.978;2024-03-23T05:33:54;9.50;97.60
25438;DHT22;13364;49.084;9.978;2024-03-23T05:36:20;9.50;97.60
25438;DHT22;13364;49.084;9.978;2024-03-23T05:38:46;9.50;98.00
25438;DHT22;13364;49.084;9.978;2024-03-23T05:41:12;9.50;98.10
25438;DHT22;13364;49.084;9.978;2024-03-23T05:43:38;9.40;98.20
25438;DHT22;13364;49.084;9.978;2024-03-23T05:46:04;9.40;98.60
25438;DHT22;13364;49.084;9.978;2024-03-23T05:48:31;9.40;98.90
25438;DHT22;13364;49.084;9.978;2024-03-23T05:50:57;9.40;99.20
25438;DHT22;13364;49.084;9.978;2024-03-23T05:53:24;9.40;99.40
25438;DHT22;13364;49.084;9.978;2024-03-23T05:55:51;9.30;99.20
25438;DHT22;13364;49.084;9.978;2024-03-23T05:58:19;9.30;99.40
25438;DHT22;13364;49.084;9.978;2024-03-23T06:00:46;9.30;99.50
25438;DHT22;13364;49.084;9.978;2024-03-23T06:03:11;9.30;99.80
25438;DHT22;13364;49.084;9.978;2024-03-23T06:05:38;9.20;100.00
25438;DHT22;13364;49.084;9.978;2024-03-23T06:08:04;9.10;100.00
25438;DHT22;13364;49.084;9.978;2024-03-23T06:10:30;9.00;100.00
25438;DHT22;13364;49.084;9.978;2024-03-23T06:12:57;9.00;100.00
25438;DHT22;13364;49.084;9.978;2024-03-23T06:15:25;8.90;100.00
25438;DHT22;13364;49.084;9.978;2024-03-23T06:17:51;8.90;100.00
25438;DHT22;13364;49.084;9.978;2024-03-23T06:20:17;8.80;100.00
25438;DHT22;13364;49.084;9.978;2024-03-23T06:22:43;8.80;100.00
25438;DHT22;13364;49.084;9.978;2024-03-23T06:25:09;8.70;100.00
25438;DHT22;13364;49.084;9.978;2024-03-23T06:27:35;8.70;100.00
25438;DHT22;13364;49.084;9.978;2024-03-23T06:30:01;8.70;100.00
25438;DHT22;13364;49.084;9.978;2024-03-23T06:32:28;8.60;100.00
25438;DHT22;13364;49.084;9.978;2024-03-23T06:34:54;8.60;100.00
25438;DHT22;13364;49.084;9.978;2024-03-23T06:37:21;8.60;100.00
25438;DHT22;13364;49.084;9.978;2024-03-23T06:39:46;8.70;100.00
25438;DHT22;13364;49.084;9.978;2024-03-23T06:42:12;8.70;100.00
25438;DHT22;13364;49.084;9.978;2024-03-23T06:44:39;8.60;100.00
25438;DHT22;13364;49.084;9.978;2024-03-23T06:47:05;8.50;100.00
25438;DHT22;13364;49.084;9.978;2024-03-23T06:49:31;8.50;100.00
25438;DHT22;13364;49.084;9.978;2024-03-23T06:51:57;8.50;100.00
25438;DHT22;13364;49.084;9.978;2024-03-23T06:54:24;8.40;100.00
25438;DHT22;13364;49.084;9.978;2024-03-23T06:56:50;8.30;100.00
25438;DHT22;13364;49.084;9.978;2024-03-23T06:59:16;8.30;100.00
25438;DHT22;13364;49.084;9.978;2024-03-23T07:01:42;8.30;100.00
25438;DHT22;13364;49.084;9.978;2024-03-23T07:04:08;8.30;100.00
25438;DHT22;13364;49.084;9.978;2024-03-23T07:06:34;8.30;100.00
25438;DHT22;13364;49.084;9.978;2024-03-23T07:09:00;8.30;100.00
25438;DHT22;13364;49.084;9.978;2024-03-23T07:11:26;8.30;100.00
25438;DHT22;13364;49.084;9.978;2024-03-23T07:13:53;8.30;100.00
25438;DHT22;13364;49.084;9.978;2024-03-23T07:16:21;8.30;100.00
25438;DHT22;13364;49.084;9.978;2024-03-23T07:18:47;8.30;100.00
25438;DHT22;13364;49.084;9.978;2024-03-23T07:21:17;8.30;100.00
25438;DHT22;13364;49.084;9.978;2024-03-23T07:23:54;8.30;100.00
25438;DHT22;13364;49.084;9.978;2024-03-23T07:26:20;8.20;100.00
25438;DHT22;13364;49.084;9.978;2024-03-23T07:28:45;8.20;100.00
25438;DHT22;13364;49.084;9.978;2024-03-23T07:31:13;8.20;100.00
25438;DHT22;13364;49.084;9.978;2024-03-23T07:33:45;8.20;100.00
25438;DHT22;13364;49.084;9.978;2024-03-23T07:36:11;8.20;100.00
25438;DHT22;13364;49.084;9.978;2024-03-23T07:38:39;8.20;100.00
25438;DHT22;13364;49.084;9.978;2024-03-23T07:41:07;8.20;100.00
25438;DHT22;13364;49.084;9.978;2024-03-23T07:43:33;8.20;100.00
25438;DHT22;13364;49.084;9.978;2024-03-23T07:45:59;8.20;100.00
25438;DHT22;13364;49.084;9.978;2024-03-23T07:48:26;8.20;100.00
25438;DHT22;13364;49.084;9.978;2024-03-23T07:51:04;8.10;99.20
25438;DHT22;13364;49.084;9.978;2024-03-23T07:53:31;7.90;98.20
25438;DHT22;13364;49.084;9.978;2024-03-23T07:55:59;7.80;98.20
25438;DHT22;13364;49.084;9.978;2024-03-23T07:58:26;7.70;97.50
25438;DHT22;13364;49.084;9.978;2024-03-23T08:00:53;7.80;98.00
25438;DHT22;13364;49.084;9.978;2024-03-23T08:03:19;7.70;96.50
25438;DHT22;13364;49.084;9.978;2024-03-23T08:05:45;7.60;97.20
25438;DHT22;13364;49.084;9.978;2024-03-23T08:08:11;7.50;96.20
25438;DHT22;13364;49.084;9.978;2024-03-23T08:10:50;7.40;96.70
25438;DHT22;13364;49.084;9.978;2024-03-23T08:13:16;7.30;97.50
25438;DHT22;13364;49.084;9.978;2024-03-23T08:15:42;7.20;97.60
25438;DHT22;13364;49.084;9.978;2024-03-23T08:18:09;7.10;98.30
25438;DHT22;13364;49.084;9.978;2024-03-23T08:20:35;7.00;97.90
25438;DHT22;13364;49.084;9.978;2024-03-23T08:23:01;6.80;98.20
25438;DHT22;13364;49.084;9.978;2024-03-23T08:25:31;6.70;98.20
25438;DHT22;13364;49.084;9.978;2024-03-23T08:27:58;6.60;98.20
25438;DHT22;13364;49.084;9.978;2024-03-23T08:30:24;6.50;99.20
25438;DHT22;13364;49.084;9.978;2024-03-23T08:32:50;6.50;99.60
25438;DHT22;13364;49.084;9.978;2024-03-23T08:35:16;6.50;100.00
25438;DHT22;13364;49.084;9.978;2024-03-23T08:37:41;6.50;100.00
25438;DHT22;13364;49.084;9.978;2024-03-23T08:40:08;6.50;100.00
25438;DHT22;13364;49.084;9.978;2024-03-23T08:42:34;6.50;100.00
25438;DHT22;13364;49.084;9.978;2024-03-23T08:45:00;6.50;100.00
25438;DHT22;13364;49.084;9.978;2024-03-23T08:47:26;6.50;100.00
25438;DHT22;13364;49.084;9.978;2024-03-23T08:49:52;6.60;100.00
25438;DHT22;13364;49.084;9.978;2024-03-23T08:52:18;6.60;100.00
25438;DHT22;13364;49.084;9.978;2024-03-23T08:54:44;6.70;100.00
25438;DHT22;13364;49.084;9.978;2024-03-23T08:57:10;6.80;100.00
25438;DHT22;13364;49.084;9.978;2024-03-23T08:59:37;6.90;99.90
25438;DHT22;13364;49.084;9.978;2024-03-23T09:02:03;6.90;98.80
25438;DHT22;13364;49.084;9.978;2024-03-23T09:04:30;7.00;98.20
25438;DHT22;13364;49.084;9.978;2024-03-23T09:06:57;7.00;97.20
25438;DHT22;13364;49.084;9.978;2024-03-23T09:09:24;6.90;96.10
25438;DHT22;13364;49.084;9.978;2024-03-23T09:11:50;6.90;96.00
25438;DHT22;13364;49.084;9.978;2024-03-23T09:14:16;6.80;96.50
25438;DHT22;13364;49.084;9.978;2024-03-23T09:16:42;6.80;97.00
25438;DHT22;13364;49.084;9.978;2024-03-23T09:19:08;6.80;97.00
25438;DHT22;13364;49.084;9.978;2024-03-23T09:21:34;6.80;96.30
25438;DHT22;13364;49.084;9.978;2024-03-23T09:23:59;6.90;96.50
25438;DHT22;13364;49.084;9.978;2024-03-23T09:26:25;6.90;94.70
25438;DHT22;13364;49.084;9.978;2024-03-23T09:28:51;7.00;94.40
25438;DHT22;13364;49.084;9.978;2024-03-23T09:31:17;7.00;93.80
25438;DHT22;13364;49.084;9.978;2024-03-23T09:33:43;7.00;93.80
25438;DHT22;13364;49.084;9.978;2024-03-23T09:36:09;7.00;93.50
25438;DHT22;13364;49.084;9.978;2024-03-23T09:38:35;7.10;93.30
25438;DHT22;13364;49.084;9.978;2024-03-23T09:41:07;7.10;92.40
25438;DHT22;13364;49.084;9.978;2024-03-23T09:43:33;7.10;93.10
25438;DHT22;13364;49.084;9.978;2024-03-23T09:46:00;7.10;91.80
25438;DHT22;13364;49.084;9.978;2024-03-23T09:48:27;7.10;91.80
25438;DHT22;13364;49.084;9.978;2024-03-23T09:50:53;7.00;91.40
25438;DHT22;13364;49.084;9.978;2024-03-23T09:53:19;7.10;91.80
25438;DHT22;13364;49.084;9.978;2024-03-23T09:55:45;7.20;92.10
25438;DHT22;13364;49.084;9.978;2024-03-23T09:58:18;7.30;90.60
25438;DHT22;13364;49.084;9.978;2024-03-23T10:00:44;7.30;91.40
25438;DHT22;13364;49.084;9.978;2024-03-23T10:03:10;7.50;91.00
25438;DHT22;13364;49.084;9.978;2024-03-23T10:05:37;7.60;91.10
25438;DHT22;13364;49.084;9.978;2024-03-23T10:10:42;8.00;89.10
25438;DHT22;13364;49.084;9.978;2024-03-23T10:13:08;8.10;86.40
25438;DHT22;13364;49.084;9.978;2024-03-23T10:15:35;8.00;82.50
25438;DHT22;13364;49.084;9.978;2024-03-23T10:18:20;8.00;83.90
25438;DHT22;13364;49.084;9.978;2024-03-23T10:20:50;7.80;81.80
25438;DHT22;13364;49.084;9.978;2024-03-23T10:23:16;7.70;81.60
25438;DHT22;13364;49.084;9.978;2024-03-23T10:25:42;7.50;81.80
25438;DHT22;13364;49.084;9.978;2024-03-23T10:28:08;7.50;82.60
25438;DHT22;13364;49.084;9.978;2024-03-23T10:30:35;7.50;81.40
25438;DHT22;13364;49.084;9.978;2024-03-23T10:33:11;7.60;82.40
25438;DHT22;13364;49.084;9.978;2024-03-23T10:35:38;7.80;80.80
25438;DHT22;13364;49.084;9.978;2024-03-23T10:38:07;7.90;79.10
25438;DHT22;13364;49.084;9.978;2024-03-23T10:40:37;8.00;77.80
25438;DHT22;13364;49.084;9.978;2024-03-23T10:43:03;8.00;78.40
25438;DHT22;13364;49.084;9.978;2024-03-23T10:45:30;8.00;80.00
25438;DHT22;13364;49.084;9.978;2024-03-23T10:47:56;8.10;77.40
25438;DHT22;13364;49.084;9.978;2024-03-23T10:50:23;8.10;78.30
25438;DHT22;13364;49.084;9.978;2024-03-23T10:52:49;8.30;77.60
25438;DHT22;13364;49.084;9.978;2024-03-23T10:55:17;8.40;74.50
25438;DHT22;13364;49.084;9.978;2024-03-23T10:57:56;8.50;75.90
25438;DHT22;13364;49.084;9.978;2024-03-23T11:00:25;8.60;76.70
25438;DHT22;13364;49.084;9.978;2024-03-23T11:02:51;8.70;73.60
25438;DHT22;13364;49.084;9.978;2024-03-23T11:07:53;8.60;74.30
25438;DHT22;13364;49.084;9.978;2024-03-23T11:10:29;8.60;72.40
25438;DHT22;13364;49.084;9.978;2024-03-23T11:12:57;8.50;73.10
25438;DHT22;13364;49.084;9.978;2024-03-23T11:15:23;8.50;72.70
25438;DHT22;13364;49.084;9.978;2024-03-23T11:18:05;8.50;74.40
25438;DHT22;13364;49.084;9.978;2024-03-23T11:20:34;8.50;72.10
25438;DHT22;13364;49.084;9.978;2024-03-23T11:23:01;8.40;71.60
25438;DHT22;13364;49.084;9.978;2024-03-23T11:25:28;8.50;74.30
25438;DHT22;13364;49.084;9.978;2024-03-23T11:27:56;8.60;73.90
25438;DHT22;13364;49.084;9.978;2024-03-23T11:30:27;8.70;72.70
25438;DHT22;13364;49.084;9.978;2024-03-23T11:32:57;8.70;72.40
25438;DHT22;13364;49.084;9.978;2024-03-23T11:35:37;8.90;73.50
25438;DHT22;13364;49.084;9.978;2024-03-23T11:40:29;8.90;67.40
25438;DHT22;13364;49.084;9.978;2024-03-23T11:43:00;8.80;67.20
25438;DHT22;13364;49.084;9.978;2024-03-23T11:45:26;8.70;67.80
25438;DHT22;13364;49.084;9.978;2024-03-23T11:48:06;8.60;70.90
25438;DHT22;13364;49.084;9.978;2024-03-23T11:50:34;8.50;71.10
25438;DHT22;13364;49.084;9.978;2024-03-23T11:55:59;8.40;70.00
25438;DHT22;13364;49.084;9.978;2024-03-23T11:58:27;8.40;71.40
25438;DHT22;13364;49.084;9.978;2024-03-23T12:00:56;8.40;70.90
25438;DHT22;13364;49.084;9.978;2024-03-23T12:03:23;8.50;72.70
25438;DHT22;13364;49.084;9.978;2024-03-23T12:05:55;8.70;72.00
25438;DHT22;13364;49.084;9.978;2024-03-23T12:08:33;8.70;71.40
25438;DHT22;13364;49.084;9.978;2024-03-23T12:11:16;8.90;72.70
25438;DHT22;13364;49.084;9.978;2024-03-23T12:13:44;8.90;71.90
25438;DHT22;13364;49.084;9.978;2024-03-23T12:16:13;9.00;71.20
25438;DHT22;13364;49.084;9.978;2024-03-23T12:18:41;9.10;72.00
25438;DHT22;13364;49.084;9.978;2024-03-23T12:21:07;9.40;73.20
25438;DHT22;13364;49.084;9.978;2024-03-23T12:23:34;9.80;71.00
25438;DHT22;13364;49.084;9.978;2024-03-23T12:25:59;10.10;69.70
25438;DHT22;13364;49.084;9.978;2024-03-23T12:28:25;10.30;68.60
25438;DHT22;13364;49.084;9.978;2024-03-23T12:30:52;10.40;67.90
25438;DHT22;13364;49.084;9.978;2024-03-23T12:33:18;10.60;69.20
25438;DHT22;13364;49.084;9.978;2024-03-23T12:35:44;10.70;67.80
25438;DHT22;13364;49.084;9.978;2024-03-23T12:38:10;10.70;66.60
25438;DHT22;13364;49.084;9.978;2024-03-23T12:40:36;10.60;66.80
25438;DHT22;13364;49.084;9.978;2024-03-23T12:43:02;10.70;66.80
25438;DHT22;13364;49.084;9.978;2024-03-23T12:45:28;10.70;67.40
25438;DHT22;13364;49.084;9.978;2024-03-23T12:47:54;10.70;66.50
25438;DHT22;13364;49.084;9.978;2024-03-23T12:50:20;10.70;66.80
25438;DHT22;13364;49.084;9.978;2024-03-23T12:52:47;10.70;67.00
25438;DHT22;13364;49.084;9.978;2024-03-23T12:55:13;10.70;67.60
25438;DHT22;13364;49.084;9.978;2024-03-23T12:57:39;10.60;67.80
25438;DHT22;13364;49.084;9.978;2024-03-23T13:00:06;10.70;68.10
25438;DHT22;13364;49.084;9.978;2024-03-23T13:02:35;10.70;68.80
25438;DHT22;13364;49.084;9.978;2024-03-23T13:05:01;10.50;66.90
25438;DHT22;13364;49.084;9.978;2024-03-23T13:07:26;10.30;68.50
25438;DHT22;13364;49.084;9.978;2024-03-23T13:09:53;10.10;67.40
25438;DHT22;13364;49.084;9.978;2024-03-23T13:12:19;10.10;70.70
25438;DHT22;13364;49.084;9.978;2024-03-23T13:14:46;10.30;70.50
25438;DHT22;13364;49.084;9.978;2024-03-23T13:17:12;10.40;68.90
25438;DHT22;13364;49.084;9.978;2024-03-23T13:19:39;10.50;68.70
25438;DHT22;13364;49.084;9.978;2024-03-23T13:22:05;10.70;70.10
25438;DHT22;13364;49.084;9.978;2024-03-23T13:24:31;10.80;69.50
25438;DHT22;13364;49.084;9.978;2024-03-23T13:26:57;11.00;70.80
25438;DHT22;13364;49.084;9.978;2024-03-23T13:29:24;11.20;69.50
25438;DHT22;13364;49.084;9.978;2024-03-23T13:31:51;11.30;68.40
25438;DHT22;13364;49.084;9.978;2024-03-23T13:34:17;11.40;67.30
25438;DHT22;13364;49.084;9.978;2024-03-23T13:36:44;11.40;66.60
25438;DHT22;13364;49.084;9.978;2024-03-23T13:39:10;11.50;67.50
25438;DHT22;13364;49.084;9.978;2024-03-23T13:41:46;11.50;66.30
25438;DHT22;13364;49.084;9.978;2024-03-23T13:44:13;11.50;67.10
25438;DHT22;13364;49.084;9.978;2024-03-23T13:46:40;11.60;67.60
25438;DHT22;13364;49.084;9.978;2024-03-23T13:51:50;11.70;67.20
25438;DHT22;13364;49.084;9.978;2024-03-23T13:54:16;11.70;66.10
25438;DHT22;13364;49.084;9.978;2024-03-23T13:56:42;11.80;67.10
25438;DHT22;13364;49.084;9.978;2024-03-23T13:59:08;11.90;65.00
25438;DHT22;13364;49.084;9.978;2024-03-23T14:01:34;11.80;66.20
25438;DHT22;13364;49.084;9.978;2024-03-23T14:04:00;11.90;63.70
25438;DHT22;13364;49.084;9.978;2024-03-23T14:06:26;11.90;63.20
25438;DHT22;13364;49.084;9.978;2024-03-23T14:08:52;11.90;62.70
25438;DHT22;13364;49.084;9.978;2024-03-23T14:11:18;12.00;63.20
25438;DHT22;13364;49.084;9.978;2024-03-23T14:13:44;12.00;62.70
25438;DHT22;13364;49.084;9.978;2024-03-23T14:16:10;12.00;61.40
25438;DHT22;13364;49.084;9.978;2024-03-23T14:18:36;11.80;60.40
25438;DHT22;13364;49.084;9.978;2024-03-23T14:21:02;11.40;60.20
25438;DHT22;13364;49.084;9.978;2024-03-23T14:23:30;10.80;61.80
25438;DHT22;13364;49.084;9.978;2024-03-23T14:25:56;10.20;65.20
25438;DHT22;13364;49.084;9.978;2024-03-23T14:28:25;9.80;67.60
25438;DHT22;13364;49.084;9.978;2024-03-23T14:30:51;9.50;70.20
25438;DHT22;13364;49.084;9.978;2024-03-23T14:33:18;9.20;71.10
25438;DHT22;13364;49.084;9.978;2024-03-23T14:35:54;8.60;72.90
25438;DHT22;13364;49.084;9.978;2024-03-23T14:38:21;8.10;74.70
25438;DHT22;13364;49.084;9.978;2024-03-23T14:40:47;7.70;75.50
25438;DHT22;13364;49.084;9.978;2024-03-23T14:43:13;7.60;77.20
25438;DHT22;13364;49.084;9.978;2024-03-23T14:46:07;7.40;77.60
25438;DHT22;13364;49.084;9.978;2024-03-23T14:48:33;7.20;78.40
25438;DHT22;13364;49.084;9.978;2024-03-23T14:51:00;6.80;81.10
25438;DHT22;13364;49.084;9.978;2024-03-23T14:53:27;6.60;83.00
25438;DHT22;13364;49.084;9.978;2024-03-23T14:55:59;6.40;84.80
25438;DHT22;13364;49.084;9.978;2024-03-23T14:58:26;6.30;86.30
25438;DHT22;13364;49.084;9.978;2024-03-23T15:00:52;6.40;87.80
25438;DHT22;13364;49.084;9.978;2024-03-23T15:03:18;6.50;88.30
25438;DHT22;13364;49.084;9.978;2024-03-23T15:05:55;6.60;87.20
25438;DHT22;13364;49.084;9.978;2024-03-23T15:08:22;6.70;85.30
25438;DHT22;13364;49.084;9.978;2024-03-23T15:10:48;6.70;85.50
25438;DHT22;13364;49.084;9.978;2024-03-23T15:13:14;6.70;85.00
25438;DHT22;13364;49.084;9.978;2024-03-23T15:15:41;6.60;85.50
25438;DHT22;13364;49.084;9.978;2024-03-23T15:18:12;6.70;85.20
25438;DHT22;13364;49.084;9.978;2024-03-23T15:20:39;6.80;86.10
25438;DHT22;13364;49.084;9.978;2024-03-23T15:23:05;6.90;84.40
25438;DHT22;13364;49.084;9.978;2024-03-23T15:25:31;7.00;84.90
25438;DHT22;13364;49.084;9.978;2024-03-23T15:27:58;7.10;84.50
25438;DHT22;13364;49.084;9.978;2024-03-23T15:30:25;7.20;84.40
25438;DHT22;13364;49.084;9.978;2024-03-23T15:32:51;7.30;83.10
25438;DHT22;13364;49.084;9.978;2024-03-23T15:35:18;7.40;82.80
25438;DHT22;13364;49.084;9.978;2024-03-23T15:37:46;7.50;83.70
25438;DHT22;13364;49.084;9.978;2024-03-23T15:40:12;7.60;83.00
25438;DHT22;13364;49.084;9.978;2024-03-23T15:42:39;7.70;83.20
25438;DHT22;13364;49.084;9.978;2024-03-23T15:45:08;7.80;81.70
25438;DHT22;13364;49.084;9.978;2024-03-23T15:47:35;7.80;81.40
25438;DHT22;13364;49.084;9.978;2024-03-23T15:50:01;7.80;80.80
25438;DHT22;13364;49.084;9.978;2024-03-23T15:52:29;7.80;81.40
25438;DHT22;13364;49.084;9.978;2024-03-23T15:54:55;7.80;81.90
25438;DHT22;13364;49.084;9.978;2024-03-23T15:57:23;7.80;81.60
25438;DHT22;13364;49.084;9.978;2024-03-23T15:59:50;7.70;82.10
25438;DHT22;13364;49.084;9.978;2024-03-23T16:02:16;7.60;81.90
25438;DHT22;13364;49.084;9.978;2024-03-23T16:04:42;7.40;83.60
25438;DHT22;13364;49.084;9.978;2024-03-23T16:07:11;7.30;84.60
25438;DHT22;13364;49.084;9.978;2024-03-23T16:09:37;7.30;86.30
25438;DHT22;13364;49.084;9.978;2024-03-23T16:12:03;7.30;86.50
25438;DHT22;13364;49.084;9.978;2024-03-23T16:14:29;7.20;86.00
25438;DHT22;13364;49.084;9.978;2024-03-23T16:16:55;7.20;85.90
25438;DHT22;13364;49.084;9.978;2024-03-23T16:19:21;7.20;86.90
25438;DHT22;13364;49.084;9.978;2024-03-23T16:21:48;7.10;86.00
25438;DHT22;13364;49.084;9.978;2024-03-23T16:24:14;7.00;84.70
25438;DHT22;13364;49.084;9.978;2024-03-23T16:26:39;6.90;85.50
25438;DHT22;13364;49.084;9.978;2024-03-23T16:29:05;6.90;85.10
25438;DHT22;13364;49.084;9.978;2024-03-23T16:31:31;6.80;85.00
25438;DHT22;13364;49.084;9.978;2024-03-23T16:33:57;6.70;83.40
25438;DHT22;13364;49.084;9.978;2024-03-23T16:36:23;6.60;80.30
25438;DHT22;13364;49.084;9.978;2024-03-23T16:38:51;6.50;79.10
25438;DHT22;13364;49.084;9.978;2024-03-23T16:41:17;6.40;78.10